sensor_id;sensor_type;location;lat;lon;timestamp;P1;durP1;ratioP1;P2;durP2;ratioP2
53293;SDS011;39181;53.440;5.644;2023-11-18T00:00:16;49.80;;;24.05;;
53293;SDS011;39181;53.440;5.644;2023-11-18T00:02:42;55.92;;;24.85;;
53293;SDS011;39181;53.440;5.644;2023-11-18T00:05:08;51.67;;;24.80;;
53293;SDS011;39181;53.440;5.644;2023-11-18T00:07:35;55.40;;;25.02;;
53293;SDS011;39181;53.440;5.644;2023-11-18T00:10:01;59.75;;;25.40;;
53293;SDS011;39181;53.440;5.644;2023-11-18T00:12:28;50.45;;;23.75;;
53293;SDS011;39181;53.440;5.644;2023-11-18T00:14:54;54.15;;;24.88;;
53293;SDS011;39181;53.440;5.644;2023-11-18T00:17:19;49.58;;;24.13;;
53293;SDS011;39181;53.440;5.644;2023-11-18T00:19:45;56.67;;;25.42;;
53293;SDS011;39181;53.440;5.644;2023-11-18T00:22:11;48.10;;;23.50;;
53293;SDS011;39181;53.440;5.644;2023-11-18T00:24:37;50.17;;;23.70;;
53293;SDS011;39181;53.440;5.644;2023-11-18T00:27:03;51.65;;;23.77;;
53293;SDS011;39181;53.440;5.644;2023-11-18T00:29:33;54.15;;;25.23;;
53293;SDS011;39181;53.440;5.644;2023-11-18T00:32:02;50.88;;;24.55;;
53293;SDS011;39181;53.440;5.644;2023-11-18T00:34:29;57.75;;;25.25;;
53293;SDS011;39181;53.440;5.644;2023-11-18T00:36:55;59.50;;;26.17;;
53293;SDS011;39181;53.440;5.644;2023-11-18T00:39:24;61.28;;;26.10;;
53293;SDS011;39181;53.440;5.644;2023-11-18T00:41:50;58.40;;;26.05;;
53293;SDS011;39181;53.440;5.644;2023-11-18T00:44:15;52.22;;;24.08;;
53293;SDS011;39181;53.440;5.644;2023-11-18T00:46:41;51.78;;;24.15;;
53293;SDS011;39181;53.440;5.644;2023-11-18T00:49:07;54.60;;;24.83;;
53293;SDS011;39181;53.440;5.644;2023-11-18T00:51:32;59.92;;;24.40;;
53293;SDS011;39181;53.440;5.644;2023-11-18T00:53:58;62.35;;;25.95;;
53293;SDS011;39181;53.440;5.644;2023-11-18T00:56:26;58.55;;;25.15;;
53293;SDS011;39181;53.440;5.644;2023-11-18T00:58:53;63.78;;;27.08;;
53293;SDS011;39181;53.440;5.644;2023-11-18T01:01:19;60.20;;;26.75;;
53293;SDS011;39181;53.440;5.644;2023-11-18T01:03:45;61.97;;;26.42;;
53293;SDS011;39181;53.440;5.644;2023-11-18T01:06:11;61.80;;;26.52;;
53293;SDS011;39181;53.440;5.644;2023-11-18T01:08:37;64.32;;;26.30;;
53293;SDS011;39181;53.440;5.644;2023-11-18T01:11:02;54.42;;;25.55;;
53293;SDS011;39181;53.440;5.644;2023-11-18T01:13:29;67.05;;;26.48;;
53293;SDS011;39181;53.440;5.644;2023-11-18T01:15:56;67.35;;;26.92;;
53293;SDS011;39181;53.440;5.644;2023-11-18T01:18:22;61.35;;;26.13;;
53293;SDS011;39181;53.440;5.644;2023-11-18T01:20:48;63.22;;;26.90;;
53293;SDS011;39181;53.440;5.644;2023-11-18T01:23:13;65.88;;;26.25;;
53293;SDS011;39181;53.440;5.644;2023-11-18T01:25:39;65.68;;;25.52;;
53293;SDS011;39181;53.440;5.644;2023-11-18T01:28:05;63.17;;;25.63;;
53293;SDS011;39181;53.440;5.644;2023-11-18T01:30:31;62.42;;;24.60;;
53293;SDS011;39181;53.440;5.644;2023-11-18T01:32:57;62.75;;;26.40;;
53293;SDS011;39181;53.440;5.644;2023-11-18T01:35:26;63.20;;;25.77;;
53293;SDS011;39181;53.440;5.644;2023-11-18T01:37:52;59.67;;;25.88;;
53293;SDS011;39181;53.440;5.644;2023-11-18T01:40:19;67.55;;;27.73;;
53293;SDS011;39181;53.440;5.644;2023-11-18T01:42:45;68.95;;;26.20;;
53293;SDS011;39181;53.440;5.644;2023-11-18T01:45:12;60.83;;;25.70;;
53293;SDS011;39181;53.440;5.644;2023-11-18T01:47:39;66.60;;;26.23;;
53293;SDS011;39181;53.440;5.644;2023-11-18T01:50:06;60.83;;;25.00;;
53293;SDS011;39181;53.440;5.644;2023-11-18T01:52:36;66.25;;;25.15;;
53293;SDS011;39181;53.440;5.644;2023-11-18T01:55:02;67.68;;;26.80;;
53293;SDS011;39181;53.440;5.644;2023-11-18T01:57:31;73.80;;;27.90;;
53293;SDS011;39181;53.440;5.644;2023-11-18T01:59:58;69.15;;;27.83;;
53293;SDS011;39181;53.440;5.644;2023-11-18T02:02:25;67.45;;;28.50;;
53293;SDS011;39181;53.440;5.644;2023-11-18T02:04:51;71.18;;;28.38;;
53293;SDS011;39181;53.440;5.644;2023-11-18T02:07:17;73.43;;;29.17;;
53293;SDS011;39181;53.440;5.644;2023-11-18T02:09:43;68.80;;;28.25;;
53293;SDS011;39181;53.440;5.644;2023-11-18T02:12:19;69.22;;;28.55;;
53293;SDS011;39181;53.440;5.644;2023-11-18T02:14:52;68.63;;;28.15;;
53293;SDS011;39181;53.440;5.644;2023-11-18T02:17:21;65.65;;;28.48;;
53293;SDS011;39181;53.440;5.644;2023-11-18T02:19:55;73.40;;;29.08;;
53293;SDS011;39181;53.440;5.644;2023-11-18T02:22:22;67.78;;;28.35;;
53293;SDS011;39181;53.440;5.644;2023-11-18T02:24:49;75.70;;;29.38;;
53293;SDS011;39181;53.440;5.644;2023-11-18T02:27:15;71.97;;;28.90;;
53293;SDS011;39181;53.440;5.644;2023-11-18T02:29:42;74.25;;;29.33;;
53293;SDS011;39181;53.440;5.644;2023-11-18T02:34:58;78.35;;;31.80;;
53293;SDS011;39181;53.440;5.644;2023-11-18T02:37:35;80.45;;;31.35;;
53293;SDS011;39181;53.440;5.644;2023-11-18T02:40:07;82.90;;;31.65;;
53293;SDS011;39181;53.440;5.644;2023-11-18T02:42:39;82.82;;;30.98;;
53293;SDS011;39181;53.440;5.644;2023-11-18T02:45:07;72.70;;;30.08;;
53293;SDS011;39181;53.440;5.644;2023-11-18T02:47:37;86.78;;;30.63;;
53293;SDS011;39181;53.440;5.644;2023-11-18T02:50:04;79.90;;;30.55;;
53293;SDS011;39181;53.440;5.644;2023-11-18T02:52:35;83.18;;;30.55;;
53293;SDS011;39181;53.440;5.644;2023-11-18T02:55:07;75.50;;;30.90;;
53293;SDS011;39181;53.440;5.644;2023-11-18T02:57:36;77.95;;;29.00;;
53293;SDS011;39181;53.440;5.644;2023-11-18T03:00:03;84.82;;;31.48;;
53293;SDS011;39181;53.440;5.644;2023-11-18T03:02:30;86.55;;;31.75;;
53293;SDS011;39181;53.440;5.644;2023-11-18T03:04:59;90.63;;;33.05;;
53293;SDS011;39181;53.440;5.644;2023-11-18T03:07:25;86.53;;;32.90;;
53293;SDS011;39181;53.440;5.644;2023-11-18T03:09:52;85.68;;;31.60;;
53293;SDS011;39181;53.440;5.644;2023-11-18T03:12:22;84.07;;;30.67;;
53293;SDS011;39181;53.440;5.644;2023-11-18T03:14:48;81.90;;;30.38;;
53293;SDS011;39181;53.440;5.644;2023-11-18T03:17:13;85.20;;;30.42;;
53293;SDS011;39181;53.440;5.644;2023-11-18T03:19:39;90.28;;;31.55;;
53293;SDS011;39181;53.440;5.644;2023-11-18T03:22:04;93.13;;;31.25;;
53293;SDS011;39181;53.440;5.644;2023-11-18T03:24:30;88.78;;;31.48;;
53293;SDS011;39181;53.440;5.644;2023-11-18T03:26:56;95.60;;;31.83;;
53293;SDS011;39181;53.440;5.644;2023-11-18T03:29:21;108.85;;;32.35;;
53293;SDS011;39181;53.440;5.644;2023-11-18T03:31:48;98.82;;;30.90;;
53293;SDS011;39181;53.440;5.644;2023-11-18T03:34:17;123.15;;;34.08;;
53293;SDS011;39181;53.440;5.644;2023-11-18T03:36:45;125.13;;;29.75;;
53293;SDS011;39181;53.440;5.644;2023-11-18T03:39:12;131.73;;;32.75;;
53293;SDS011;39181;53.440;5.644;2023-11-18T03:41:38;136.90;;;33.80;;
53293;SDS011;39181;53.440;5.644;2023-11-18T03:44:04;131.57;;;31.98;;
53293;SDS011;39181;53.440;5.644;2023-11-18T03:46:30;126.03;;;32.03;;
53293;SDS011;39181;53.440;5.644;2023-11-18T03:48:59;149.95;;;31.58;;
53293;SDS011;39181;53.440;5.644;2023-11-18T03:51:25;115.05;;;29.92;;
53293;SDS011;39181;53.440;5.644;2023-11-18T03:53:51;140.65;;;32.92;;
53293;SDS011;39181;53.440;5.644;2023-11-18T03:56:17;148.07;;;35.15;;
53293;SDS011;39181;53.440;5.644;2023-11-18T03:58:45;114.35;;;32.40;;
53293;SDS011;39181;53.440;5.644;2023-11-18T04:01:21;116.05;;;32.88;;
53293;SDS011;39181;53.440;5.644;2023-11-18T04:03:47;109.72;;;34.85;;
53293;SDS011;39181;53.440;5.644;2023-11-18T04:06:13;97.82;;;31.00;;
53293;SDS011;39181;53.440;5.644;2023-11-18T04:08:42;127.15;;;33.10;;
53293;SDS011;39181;53.440;5.644;2023-11-18T04:11:12;105.15;;;33.90;;
53293;SDS011;39181;53.440;5.644;2023-11-18T04:13:39;95.38;;;32.15;;
53293;SDS011;39181;53.440;5.644;2023-11-18T04:16:12;106.85;;;34.47;;
53293;SDS011;39181;53.440;5.644;2023-11-18T04:18:39;100.47;;;33.47;;
53293;SDS011;39181;53.440;5.644;2023-11-18T04:21:08;90.18;;;31.63;;
53293;SDS011;39181;53.440;5.644;2023-11-18T04:23:37;86.55;;;31.35;;
53293;SDS011;39181;53.440;5.644;2023-11-18T04:26:07;83.03;;;31.95;;
53293;SDS011;39181;53.440;5.644;2023-11-18T04:28:34;85.65;;;32.08;;
53293;SDS011;39181;53.440;5.644;2023-11-18T04:31:00;83.03;;;29.58;;
53293;SDS011;39181;53.440;5.644;2023-11-18T04:33:25;87.50;;;30.52;;
53293;SDS011;39181;53.440;5.644;2023-11-18T04:35:51;81.88;;;30.75;;
53293;SDS011;39181;53.440;5.644;2023-11-18T04:38:17;77.70;;;30.17;;
53293;SDS011;39181;53.440;5.644;2023-11-18T04:40:44;76.78;;;30.25;;
53293;SDS011;39181;53.440;5.644;2023-11-18T04:43:11;75.07;;;28.05;;
53293;SDS011;39181;53.440;5.644;2023-11-18T04:45:37;82.03;;;30.92;;
53293;SDS011;39181;53.440;5.644;2023-11-18T04:48:03;81.28;;;30.08;;
53293;SDS011;39181;53.440;5.644;2023-11-18T04:50:29;74.72;;;30.58;;
53293;SDS011;39181;53.440;5.644;2023-11-18T04:52:55;72.38;;;29.52;;
53293;SDS011;39181;53.440;5.644;2023-11-18T04:55:21;75.28;;;29.98;;
53293;SDS011;39181;53.440;5.644;2023-11-18T04:57:47;69.65;;;28.80;;
53293;SDS011;39181;53.440;5.644;2023-11-18T05:00:13;71.65;;;28.00;;
53293;SDS011;39181;53.440;5.644;2023-11-18T05:02:42;70.50;;;28.35;;
53293;SDS011;39181;53.440;5.644;2023-11-18T05:05:08;75.07;;;28.63;;
53293;SDS011;39181;53.440;5.644;2023-11-18T05:07:34;71.38;;;29.60;;
53293;SDS011;39181;53.440;5.644;2023-11-18T05:10:00;72.47;;;29.58;;
53293;SDS011;39181;53.440;5.644;2023-11-18T05:12:27;71.05;;;28.10;;
53293;SDS011;39181;53.440;5.644;2023-11-18T05:14:54;63.35;;;27.02;;
53293;SDS011;39181;53.440;5.644;2023-11-18T05:17:21;62.85;;;26.23;;
53293;SDS011;39181;53.440;5.644;2023-11-18T05:19:47;63.78;;;26.60;;
53293;SDS011;39181;53.440;5.644;2023-11-18T05:22:13;67.03;;;26.02;;
53293;SDS011;39181;53.440;5.644;2023-11-18T05:24:38;62.88;;;26.65;;
53293;SDS011;39181;53.440;5.644;2023-11-18T05:27:04;67.35;;;25.77;;
53293;SDS011;39181;53.440;5.644;2023-11-18T05:29:30;68.55;;;25.40;;
53293;SDS011;39181;53.440;5.644;2023-11-18T05:31:57;54.55;;;24.23;;
53293;SDS011;39181;53.440;5.644;2023-11-18T05:34:22;51.10;;;25.25;;
53293;SDS011;39181;53.440;5.644;2023-11-18T05:36:48;61.40;;;25.15;;
53293;SDS011;39181;53.440;5.644;2023-11-18T05:39:19;55.08;;;24.08;;
53293;SDS011;39181;53.440;5.644;2023-11-18T05:41:49;57.28;;;23.58;;
53293;SDS011;39181;53.440;5.644;2023-11-18T05:44:16;65.03;;;25.75;;
53293;SDS011;39181;53.440;5.644;2023-11-18T05:46:44;62.47;;;26.80;;
53293;SDS011;39181;53.440;5.644;2023-11-18T05:49:13;61.25;;;25.30;;
53293;SDS011;39181;53.440;5.644;2023-11-18T05:51:39;59.05;;;24.75;;
53293;SDS011;39181;53.440;5.644;2023-11-18T05:54:08;58.40;;;24.58;;
53293;SDS011;39181;53.440;5.644;2023-11-18T05:56:34;64.97;;;25.60;;
53293;SDS011;39181;53.440;5.644;2023-11-18T05:59:00;60.78;;;25.75;;
53293;SDS011;39181;53.440;5.644;2023-11-18T06:01:28;57.30;;;25.25;;
53293;SDS011;39181;53.440;5.644;2023-11-18T06:03:54;68.30;;;25.92;;
53293;SDS011;39181;53.440;5.644;2023-11-18T06:06:21;60.83;;;25.23;;
53293;SDS011;39181;53.440;5.644;2023-11-18T06:08:48;59.25;;;25.25;;
53293;SDS011;39181;53.440;5.644;2023-11-18T06:11:14;62.60;;;24.98;;
53293;SDS011;39181;53.440;5.644;2023-11-18T06:13:47;60.25;;;24.42;;
53293;SDS011;39181;53.440;5.644;2023-11-18T06:16:15;62.47;;;25.05;;
53293;SDS011;39181;53.440;5.644;2023-11-18T06:18:52;59.30;;;25.33;;
53293;SDS011;39181;53.440;5.644;2023-11-18T06:21:21;58.35;;;24.23;;
53293;SDS011;39181;53.440;5.644;2023-11-18T06:23:55;62.08;;;24.30;;
53293;SDS011;39181;53.440;5.644;2023-11-18T06:26:25;63.33;;;25.38;;
53293;SDS011;39181;53.440;5.644;2023-11-18T06:28:52;54.95;;;24.10;;
53293;SDS011;39181;53.440;5.644;2023-11-18T06:31:19;59.83;;;25.30;;
53293;SDS011;39181;53.440;5.644;2023-11-18T06:33:45;59.30;;;26.02;;
53293;SDS011;39181;53.440;5.644;2023-11-18T06:38:52;61.25;;;26.77;;
53293;SDS011;39181;53.440;5.644;2023-11-18T06:41:19;62.17;;;27.52;;
53293;SDS011;39181;53.440;5.644;2023-11-18T06:43:48;60.67;;;25.73;;
53293;SDS011;39181;53.440;5.644;2023-11-18T06:46:32;61.33;;;27.13;;
53293;SDS011;39181;53.440;5.644;2023-11-18T06:49:05;59.97;;;26.55;;
53293;SDS011;39181;53.440;5.644;2023-11-18T06:51:33;64.50;;;27.17;;
53293;SDS011;39181;53.440;5.644;2023-11-18T06:54:00;61.40;;;26.92;;
53293;SDS011;39181;53.440;5.644;2023-11-18T06:56:33;63.30;;;27.00;;
53293;SDS011;39181;53.440;5.644;2023-11-18T06:59:00;62.28;;;26.05;;
53293;SDS011;39181;53.440;5.644;2023-11-18T07:01:26;64.90;;;27.65;;
53293;SDS011;39181;53.440;5.644;2023-11-18T07:03:51;69.78;;;27.63;;
53293;SDS011;39181;53.440;5.644;2023-11-18T07:06:18;68.50;;;27.45;;
53293;SDS011;39181;53.440;5.644;2023-11-18T07:08:52;69.05;;;27.50;;
53293;SDS011;39181;53.440;5.644;2023-11-18T07:11:20;67.05;;;27.38;;
53293;SDS011;39181;53.440;5.644;2023-11-18T07:13:46;60.83;;;26.25;;
53293;SDS011;39181;53.440;5.644;2023-11-18T07:16:13;65.85;;;27.08;;
53293;SDS011;39181;53.440;5.644;2023-11-18T07:18:39;65.05;;;27.23;;
53293;SDS011;39181;53.440;5.644;2023-11-18T07:21:06;64.97;;;27.92;;
53293;SDS011;39181;53.440;5.644;2023-11-18T07:23:34;64.03;;;27.25;;
53293;SDS011;39181;53.440;5.644;2023-11-18T07:26:00;57.78;;;27.98;;
53293;SDS011;39181;53.440;5.644;2023-11-18T07:28:26;62.33;;;27.48;;
53293;SDS011;39181;53.440;5.644;2023-11-18T07:30:52;63.00;;;26.95;;
53293;SDS011;39181;53.440;5.644;2023-11-18T07:33:19;59.05;;;25.90;;
53293;SDS011;39181;53.440;5.644;2023-11-18T07:35:45;54.80;;;26.05;;
53293;SDS011;39181;53.440;5.644;2023-11-18T07:38:13;58.53;;;25.83;;
53293;SDS011;39181;53.440;5.644;2023-11-18T07:40:39;56.08;;;26.05;;
53293;SDS011;39181;53.440;5.644;2023-11-18T07:43:10;62.25;;;25.92;;
53293;SDS011;39181;53.440;5.644;2023-11-18T07:45:40;56.65;;;24.98;;
53293;SDS011;39181;53.440;5.644;2023-11-18T07:48:07;54.17;;;25.70;;
53293;SDS011;39181;53.440;5.644;2023-11-18T07:50:34;61.78;;;26.50;;
53293;SDS011;39181;53.440;5.644;2023-11-18T07:53:15;58.63;;;25.90;;
53293;SDS011;39181;53.440;5.644;2023-11-18T07:55:41;55.58;;;25.60;;
53293;SDS011;39181;53.440;5.644;2023-11-18T07:58:07;58.10;;;25.63;;
53293;SDS011;39181;53.440;5.644;2023-11-18T08:00:40;58.08;;;25.25;;
53293;SDS011;39181;53.440;5.644;2023-11-18T08:03:06;58.58;;;25.30;;
53293;SDS011;39181;53.440;5.644;2023-11-18T08:05:36;55.75;;;27.00;;
53293;SDS011;39181;53.440;5.644;2023-11-18T08:08:12;58.38;;;25.20;;
53293;SDS011;39181;53.440;5.644;2023-11-18T08:10:39;60.05;;;26.40;;
53293;SDS011;39181;53.440;5.644;2023-11-18T08:13:06;61.42;;;25.75;;
53293;SDS011;39181;53.440;5.644;2023-11-18T08:15:33;59.97;;;25.77;;
53293;SDS011;39181;53.440;5.644;2023-11-18T08:18:00;55.85;;;26.83;;
53293;SDS011;39181;53.440;5.644;2023-11-18T08:20:26;57.38;;;24.60;;
53293;SDS011;39181;53.440;5.644;2023-11-18T08:22:51;56.38;;;25.20;;
53293;SDS011;39181;53.440;5.644;2023-11-18T08:25:18;54.05;;;23.25;;
53293;SDS011;39181;53.440;5.644;2023-11-18T08:27:44;51.75;;;23.55;;
53293;SDS011;39181;53.440;5.644;2023-11-18T08:30:11;54.22;;;23.98;;
53293;SDS011;39181;53.440;5.644;2023-11-18T08:32:38;48.95;;;22.75;;
53293;SDS011;39181;53.440;5.644;2023-11-18T08:35:07;51.70;;;22.92;;
53293;SDS011;39181;53.440;5.644;2023-11-18T08:37:33;53.20;;;23.23;;
53293;SDS011;39181;53.440;5.644;2023-11-18T08:42:32;51.55;;;22.80;;
53293;SDS011;39181;53.440;5.644;2023-11-18T08:44:59;57.60;;;25.38;;
53293;SDS011;39181;53.440;5.644;2023-11-18T08:47:25;48.95;;;22.33;;
53293;SDS011;39181;53.440;5.644;2023-11-18T08:49:57;52.05;;;22.25;;
53293;SDS011;39181;53.440;5.644;2023-11-18T08:52:22;51.80;;;23.33;;
53293;SDS011;39181;53.440;5.644;2023-11-18T08:54:50;50.70;;;21.17;;
53293;SDS011;39181;53.440;5.644;2023-11-18T08:57:42;48.35;;;21.63;;
53293;SDS011;39181;53.440;5.644;2023-11-18T09:00:23;46.60;;;20.15;;
53293;SDS011;39181;53.440;5.644;2023-11-18T09:03:17;45.65;;;21.02;;
53293;SDS011;39181;53.440;5.644;2023-11-18T09:05:50;44.90;;;20.15;;
53293;SDS011;39181;53.440;5.644;2023-11-18T09:10:53;47.75;;;20.70;;
53293;SDS011;39181;53.440;5.644;2023-11-18T09:13:25;45.05;;;19.88;;
53293;SDS011;39181;53.440;5.644;2023-11-18T09:15:58;44.33;;;19.25;;
53293;SDS011;39181;53.440;5.644;2023-11-18T09:18:37;49.22;;;20.85;;
53293;SDS011;39181;53.440;5.644;2023-11-18T09:21:05;49.45;;;20.15;;
53293;SDS011;39181;53.440;5.644;2023-11-18T09:23:31;51.92;;;21.35;;
53293;SDS011;39181;53.440;5.644;2023-11-18T09:25:59;54.35;;;22.50;;
53293;SDS011;39181;53.440;5.644;2023-11-18T09:28:26;48.25;;;20.40;;
53293;SDS011;39181;53.440;5.644;2023-11-18T09:30:54;41.88;;;18.73;;
53293;SDS011;39181;53.440;5.644;2023-11-18T09:33:23;45.13;;;20.52;;
53293;SDS011;39181;53.440;5.644;2023-11-18T09:36:02;47.13;;;20.92;;
53293;SDS011;39181;53.440;5.644;2023-11-18T09:38:33;48.97;;;21.40;;
53293;SDS011;39181;53.440;5.644;2023-11-18T09:41:03;46.05;;;20.98;;
53293;SDS011;39181;53.440;5.644;2023-11-18T09:43:35;42.42;;;20.77;;
53293;SDS011;39181;53.440;5.644;2023-11-18T09:46:07;50.00;;;20.20;;
53293;SDS011;39181;53.440;5.644;2023-11-18T09:48:45;41.83;;;19.45;;
53293;SDS011;39181;53.440;5.644;2023-11-18T09:51:19;39.55;;;19.58;;
53293;SDS011;39181;53.440;5.644;2023-11-18T09:53:46;41.42;;;18.05;;
53293;SDS011;39181;53.440;5.644;2023-11-18T10:01:40;50.10;;;20.27;;
53293;SDS011;39181;53.440;5.644;2023-11-18T10:04:09;38.10;;;19.23;;
53293;SDS011;39181;53.440;5.644;2023-11-18T10:06:36;41.95;;;20.52;;
53293;SDS011;39181;53.440;5.644;2023-11-18T10:09:05;43.22;;;19.63;;
53293;SDS011;39181;53.440;5.644;2023-11-18T10:11:42;39.90;;;19.60;;
53293;SDS011;39181;53.440;5.644;2023-11-18T10:14:11;45.63;;;20.98;;
53293;SDS011;39181;53.440;5.644;2023-11-18T10:16:40;40.03;;;18.92;;
53293;SDS011;39181;53.440;5.644;2023-11-18T10:19:07;46.05;;;19.25;;
53293;SDS011;39181;53.440;5.644;2023-11-18T10:21:37;45.13;;;19.05;;
53293;SDS011;39181;53.440;5.644;2023-11-18T10:24:06;41.55;;;19.55;;
53293;SDS011;39181;53.440;5.644;2023-11-18T10:26:41;56.88;;;20.58;;
53293;SDS011;39181;53.440;5.644;2023-11-18T10:29:10;48.30;;;20.88;;
53293;SDS011;39181;53.440;5.644;2023-11-18T10:31:38;46.05;;;20.65;;
53293;SDS011;39181;53.440;5.644;2023-11-18T10:34:10;42.45;;;19.65;;
53293;SDS011;39181;53.440;5.644;2023-11-18T10:36:36;49.65;;;21.55;;
53293;SDS011;39181;53.440;5.644;2023-11-18T10:39:02;51.28;;;20.65;;
53293;SDS011;39181;53.440;5.644;2023-11-18T10:41:40;45.33;;;19.65;;
53293;SDS011;39181;53.440;5.644;2023-11-18T10:44:08;53.45;;;19.48;;
53293;SDS011;39181;53.440;5.644;2023-11-18T10:46:53;40.88;;;19.38;;
53293;SDS011;39181;53.440;5.644;2023-11-18T10:49:22;43.70;;;19.90;;
53293;SDS011;39181;53.440;5.644;2023-11-18T10:51:47;41.70;;;19.33;;
53293;SDS011;39181;53.440;5.644;2023-11-18T10:54:16;45.45;;;20.80;;
53293;SDS011;39181;53.440;5.644;2023-11-18T10:56:50;52.95;;;21.27;;
53293;SDS011;39181;53.440;5.644;2023-11-18T10:59:21;48.63;;;20.13;;
53293;SDS011;39181;53.440;5.644;2023-11-18T11:01:47;47.63;;;21.05;;
53293;SDS011;39181;53.440;5.644;2023-11-18T11:04:14;41.45;;;20.75;;
53293;SDS011;39181;53.440;5.644;2023-11-18T11:06:46;40.53;;;19.67;;
53293;SDS011;39181;53.440;5.644;2023-11-18T11:09:17;45.85;;;20.13;;
53293;SDS011;39181;53.440;5.644;2023-11-18T11:11:49;44.35;;;21.80;;
53293;SDS011;39181;53.440;5.644;2023-11-18T11:14:20;47.05;;;22.20;;
53293;SDS011;39181;53.440;5.644;2023-11-18T11:16:51;45.08;;;20.10;;
53293;SDS011;39181;53.440;5.644;2023-11-18T11:19:25;48.63;;;20.30;;
53293;SDS011;39181;53.440;5.644;2023-11-18T11:22:06;48.60;;;21.77;;
53293;SDS011;39181;53.440;5.644;2023-11-18T11:30:33;46.40;;;21.92;;
53293;SDS011;39181;53.440;5.644;2023-11-18T11:35:40;46.60;;;21.35;;
53293;SDS011;39181;53.440;5.644;2023-11-18T11:38:12;49.28;;;20.42;;
53293;SDS011;39181;53.440;5.644;2023-11-18T11:40:39;42.88;;;19.30;;
53293;SDS011;39181;53.440;5.644;2023-11-18T11:43:07;37.88;;;17.55;;
53293;SDS011;39181;53.440;5.644;2023-11-18T11:45:35;41.95;;;19.42;;
53293;SDS011;39181;53.440;5.644;2023-11-18T11:48:02;47.13;;;20.67;;
53293;SDS011;39181;53.440;5.644;2023-11-18T11:53:35;55.10;;;20.42;;
53293;SDS011;39181;53.440;5.644;2023-11-18T11:56:10;50.10;;;20.85;;
53293;SDS011;39181;53.440;5.644;2023-11-18T11:58:39;47.03;;;19.65;;
53293;SDS011;39181;53.440;5.644;2023-11-18T12:03:51;47.42;;;19.35;;
53293;SDS011;39181;53.440;5.644;2023-11-18T12:06:22;41.72;;;16.95;;
53293;SDS011;39181;53.440;5.644;2023-11-18T12:08:54;48.03;;;18.60;;
53293;SDS011;39181;53.440;5.644;2023-11-18T12:11:21;40.50;;;17.70;;
53293;SDS011;39181;53.440;5.644;2023-11-18T12:14:06;39.13;;;17.83;;
53293;SDS011;39181;53.440;5.644;2023-11-18T12:17:00;42.35;;;18.60;;
53293;SDS011;39181;53.440;5.644;2023-11-18T12:19:34;45.92;;;19.20;;
53293;SDS011;39181;53.440;5.644;2023-11-18T12:22:09;38.15;;;17.90;;
53293;SDS011;39181;53.440;5.644;2023-11-18T12:24:42;36.95;;;17.10;;
53293;SDS011;39181;53.440;5.644;2023-11-18T12:35:22;38.60;;;17.27;;
53293;SDS011;39181;53.440;5.644;2023-11-18T12:40:57;47.97;;;17.33;;
53293;SDS011;39181;53.440;5.644;2023-11-18T12:43:37;47.45;;;19.35;;
53293;SDS011;39181;53.440;5.644;2023-11-18T12:48:56;47.95;;;18.67;;
53293;SDS011;39181;53.440;5.644;2023-11-18T12:51:24;45.65;;;18.20;;
53293;SDS011;39181;53.440;5.644;2023-11-18T12:53:50;45.88;;;18.35;;
53293;SDS011;39181;53.440;5.644;2023-11-18T12:56:18;50.33;;;19.58;;
53293;SDS011;39181;53.440;5.644;2023-11-18T12:58:45;47.92;;;18.83;;
53293;SDS011;39181;53.440;5.644;2023-11-18T13:01:12;51.88;;;19.77;;
53293;SDS011;39181;53.440;5.644;2023-11-18T13:03:42;52.88;;;20.05;;
53293;SDS011;39181;53.440;5.644;2023-11-18T13:06:09;57.88;;;22.50;;
53293;SDS011;39181;53.440;5.644;2023-11-18T13:08:37;63.30;;;21.65;;
53293;SDS011;39181;53.440;5.644;2023-11-18T13:11:03;52.40;;;21.35;;
53293;SDS011;39181;53.440;5.644;2023-11-18T13:13:33;55.15;;;19.23;;
53293;SDS011;39181;53.440;5.644;2023-11-18T13:15:59;53.25;;;20.40;;
53293;SDS011;39181;53.440;5.644;2023-11-18T13:18:25;51.15;;;20.58;;
53293;SDS011;39181;53.440;5.644;2023-11-18T13:20:55;53.25;;;20.63;;
53293;SDS011;39181;53.440;5.644;2023-11-18T13:23:25;47.28;;;18.25;;
53293;SDS011;39181;53.440;5.644;2023-11-18T13:25:53;45.88;;;19.30;;
53293;SDS011;39181;53.440;5.644;2023-11-18T13:28:24;44.17;;;19.77;;
53293;SDS011;39181;53.440;5.644;2023-11-18T13:30:50;43.88;;;17.80;;
53293;SDS011;39181;53.440;5.644;2023-11-18T13:33:16;41.03;;;18.25;;
53293;SDS011;39181;53.440;5.644;2023-11-18T13:35:42;40.95;;;17.58;;
53293;SDS011;39181;53.440;5.644;2023-11-18T13:38:08;41.17;;;17.67;;
53293;SDS011;39181;53.440;5.644;2023-11-18T13:40:42;31.60;;;16.75;;
53293;SDS011;39181;53.440;5.644;2023-11-18T13:43:12;35.97;;;17.25;;
53293;SDS011;39181;53.440;5.644;2023-11-18T13:45:38;36.55;;;16.27;;
53293;SDS011;39181;53.440;5.644;2023-11-18T13:48:04;27.85;;;14.35;;
53293;SDS011;39181;53.440;5.644;2023-11-18T13:50:30;26.38;;;14.18;;
53293;SDS011;39181;53.440;5.644;2023-11-18T13:52:58;27.33;;;13.43;;
53293;SDS011;39181;53.440;5.644;2023-11-18T13:55:25;28.67;;;13.20;;
53293;SDS011;39181;53.440;5.644;2023-11-18T13:57:56;25.90;;;11.90;;
53293;SDS011;39181;53.440;5.644;2023-11-18T14:00:26;26.50;;;12.98;;
53293;SDS011;39181;53.440;5.644;2023-11-18T14:02:55;23.13;;;12.50;;
53293;SDS011;39181;53.440;5.644;2023-11-18T14:05:22;23.58;;;12.50;;
53293;SDS011;39181;53.440;5.644;2023-11-18T14:07:49;25.20;;;11.52;;
53293;SDS011;39181;53.440;5.644;2023-11-18T14:10:17;26.58;;;11.93;;
53293;SDS011;39181;53.440;5.644;2023-11-18T14:15:27;21.55;;;10.60;;
53293;SDS011;39181;53.440;5.644;2023-11-18T14:17:53;25.05;;;12.40;;
53293;SDS011;39181;53.440;5.644;2023-11-18T14:20:19;21.65;;;11.50;;
53293;SDS011;39181;53.440;5.644;2023-11-18T14:22:47;20.95;;;10.60;;
53293;SDS011;39181;53.440;5.644;2023-11-18T14:25:13;26.52;;;11.05;;
53293;SDS011;39181;53.440;5.644;2023-11-18T14:27:39;21.90;;;10.73;;
53293;SDS011;39181;53.440;5.644;2023-11-18T14:30:06;23.45;;;11.13;;
53293;SDS011;39181;53.440;5.644;2023-11-18T14:32:34;25.67;;;11.63;;
53293;SDS011;39181;53.440;5.644;2023-11-18T14:35:00;20.15;;;10.65;;
53293;SDS011;39181;53.440;5.644;2023-11-18T14:37:26;23.90;;;10.00;;
53293;SDS011;39181;53.440;5.644;2023-11-18T14:39:51;27.40;;;9.57;;
53293;SDS011;39181;53.440;5.644;2023-11-18T14:42:17;21.98;;;9.68;;
53293;SDS011;39181;53.440;5.644;2023-11-18T14:44:46;23.20;;;10.43;;
53293;SDS011;39181;53.440;5.644;2023-11-18T14:47:11;21.42;;;8.95;;
53293;SDS011;39181;53.440;5.644;2023-11-18T14:49:37;16.58;;;8.85;;
53293;SDS011;39181;53.440;5.644;2023-11-18T14:52:03;20.52;;;10.05;;
53293;SDS011;39181;53.440;5.644;2023-11-18T14:54:29;15.63;;;7.70;;
53293;SDS011;39181;53.440;5.644;2023-11-18T14:57:00;20.37;;;9.47;;
53293;SDS011;39181;53.440;5.644;2023-11-18T14:59:26;17.50;;;9.10;;
53293;SDS011;39181;53.440;5.644;2023-11-18T15:01:52;16.08;;;10.02;;
53293;SDS011;39181;53.440;5.644;2023-11-18T15:04:22;19.00;;;10.13;;
53293;SDS011;39181;53.440;5.644;2023-11-18T15:06:48;20.25;;;9.98;;
53293;SDS011;39181;53.440;5.644;2023-11-18T15:09:17;18.25;;;10.18;;
53293;SDS011;39181;53.440;5.644;2023-11-18T15:11:48;21.23;;;11.10;;
53293;SDS011;39181;53.440;5.644;2023-11-18T15:14:15;19.58;;;10.60;;